sensor_id;sensor_type;location;lat;lon;timestamp;temperature;humidity
17495;DHT22;8864;51.970;4.614;2023-05-10T00:01:41;20.90;71.80
17495;DHT22;8864;51.970;4.614;2023-05-10T00:04:08;20.90;71.70
17495;DHT22;8864;51.970;4.614;2023-05-10T00:06:35;20.90;71.80
17495;DHT22;8864;51.970;4.614;2023-05-10T00:09:02;20.90;71.70
17495;DHT22;8864;51.970;4.614;2023-05-10T00:11:29;20.90;71.70
17495;DHT22;8864;51.970;4.614;2023-05-10T00:13:57;20.90;71.70
17495;DHT22;8864;51.970;4.614;2023-05-10T00:16:24;20.90;71.70
17495;DHT22;8864;51.970;4.614;2023-05-10T00:18:51;20.90;71.70
17495;DHT22;8864;51.970;4.614;2023-05-10T00:21:18;20.90;71.70
17495;DHT22;8864;51.970;4.614;2023-05-10T00:23:44;20.90;71.70
17495;DHT22;8864;51.970;4.614;2023-05-10T00:26:11;20.90;71.70
17495;DHT22;8864;51.970;4.614;2023-05-10T00:28:38;20.90;71.70
17495;DHT22;8864;51.970;4.614;2023-05-10T00:31:06;20.90;71.70
17495;DHT22;8864;51.970;4.614;2023-05-10T00:33:33;20.90;71.70
17495;DHT22;8864;51.970;4.614;2023-05-10T00:36:00;20.90;71.70
17495;DHT22;8864;51.970;4.614;2023-05-10T00:38:27;20.90;71.70
17495;DHT22;8864;51.970;4.614;2023-05-10T00:40:54;20.90;71.70
17495;DHT22;8864;51.970;4.614;2023-05-10T00:43:21;20.90;71.60
17495;DHT22;8864;51.970;4.614;2023-05-10T00:45:48;20.90;71.60
17495;DHT22;8864;51.970;4.614;2023-05-10T00:48:17;20.90;71.60
17495;DHT22;8864;51.970;4.614;2023-05-10T00:50:44;20.90;71.60
17495;DHT22;8864;51.970;4.614;2023-05-10T00:53:12;20.90;71.60
17495;DHT22;8864;51.970;4.614;2023-05-10T00:55:39;20.90;71.60
17495;DHT22;8864;51.970;4.614;2023-05-10T00:58:06;20.90;71.60
17495;DHT22;8864;51.970;4.614;2023-05-10T01:00:33;20.80;71.50
17495;DHT22;8864;51.970;4.614;2023-05-10T01:03:00;20.90;71.60
17495;DHT22;8864;51.970;4.614;2023-05-10T01:05:28;20.90;71.60
17495;DHT22;8864;51.970;4.614;2023-05-10T01:07:56;20.90;71.60
17495;DHT22;8864;51.970;4.614;2023-05-10T01:10:23;20.90;71.60
17495;DHT22;8864;51.970;4.614;2023-05-10T01:12:50;20.90;71.60
17495;DHT22;8864;51.970;4.614;2023-05-10T01:15:18;20.90;71.60
17495;DHT22;8864;51.970;4.614;2023-05-10T01:17:46;20.90;71.60
17495;DHT22;8864;51.970;4.614;2023-05-10T01:20:14;20.90;71.60
17495;DHT22;8864;51.970;4.614;2023-05-10T01:22:57;20.90;71.60
17495;DHT22;8864;51.970;4.614;2023-05-10T01:25:49;20.90;72.30
17495;DHT22;8864;51.970;4.614;2023-05-10T01:31:30;20.90;71.50
17495;DHT22;8864;51.970;4.614;2023-05-10T01:34:07;20.80;71.50
17495;DHT22;8864;51.970;4.614;2023-05-10T01:36:42;20.80;71.50
17495;DHT22;8864;51.970;4.614;2023-05-10T01:39:15;20.80;71.60
17495;DHT22;8864;51.970;4.614;2023-05-10T01:41:49;20.80;71.50
17495;DHT22;8864;51.970;4.614;2023-05-10T01:44:23;20.80;71.50
17495;DHT22;8864;51.970;4.614;2023-05-10T01:46:55;20.80;71.50
17495;DHT22;8864;51.970;4.614;2023-05-10T01:49:29;20.80;71.50
17495;DHT22;8864;51.970;4.614;2023-05-10T01:52:00;20.80;71.60
17495;DHT22;8864;51.970;4.614;2023-05-10T01:54:31;20.80;71.50
17495;DHT22;8864;51.970;4.614;2023-05-10T01:57:03;20.80;71.50
17495;DHT22;8864;51.970;4.614;2023-05-10T01:59:34;20.80;71.50
17495;DHT22;8864;51.970;4.614;2023-05-10T02:02:05;20.80;71.50
17495;DHT22;8864;51.970;4.614;2023-05-10T02:04:35;20.80;71.50
17495;DHT22;8864;51.970;4.614;2023-05-10T02:07:05;20.80;71.50
17495;DHT22;8864;51.970;4.614;2023-05-10T02:09:33;20.80;71.50
17495;DHT22;8864;51.970;4.614;2023-05-10T02:12:02;20.80;71.40
17495;DHT22;8864;51.970;4.614;2023-05-10T02:14:32;20.80;71.40
17495;DHT22;8864;51.970;4.614;2023-05-10T02:17:02;20.80;71.40
17495;DHT22;8864;51.970;4.614;2023-05-10T02:19:33;20.80;71.40
17495;DHT22;8864;51.970;4.614;2023-05-10T02:22:01;20.80;71.40
17495;DHT22;8864;51.970;4.614;2023-05-10T02:24:30;20.80;71.40
17495;DHT22;8864;51.970;4.614;2023-05-10T02:26:57;20.80;71.40
17495;DHT22;8864;51.970;4.614;2023-05-10T02:29:26;20.80;71.40
17495;DHT22;8864;51.970;4.614;2023-05-10T02:31:54;20.80;71.40
17495;DHT22;8864;51.970;4.614;2023-05-10T02:34:23;20.80;71.50
17495;DHT22;8864;51.970;4.614;2023-05-10T02:36:54;20.80;71.40
17495;DHT22;8864;51.970;4.614;2023-05-10T02:39:22;20.80;71.40
17495;DHT22;8864;51.970;4.614;2023-05-10T02:41:50;20.80;71.40
17495;DHT22;8864;51.970;4.614;2023-05-10T02:44:19;20.80;71.40
17495;DHT22;8864;51.970;4.614;2023-05-10T02:46:47;20.80;71.40
17495;DHT22;8864;51.970;4.614;2023-05-10T02:49:14;20.80;71.40
17495;DHT22;8864;51.970;4.614;2023-05-10T02:51:44;20.80;71.40
17495;DHT22;8864;51.970;4.614;2023-05-10T02:54:19;20.80;71.40
17495;DHT22;8864;51.970;4.614;2023-05-10T02:56:51;20.80;71.40
17495;DHT22;8864;51.970;4.614;2023-05-10T02:59:20;20.80;71.40
17495;DHT22;8864;51.970;4.614;2023-05-10T03:01:47;20.80;71.40
17495;DHT22;8864;51.970;4.614;2023-05-10T03:04:14;20.80;71.40
17495;DHT22;8864;51.970;4.614;2023-05-10T03:06:41;20.80;71.40
17495;DHT22;8864;51.970;4.614;2023-05-10T03:09:09;20.80;71.40
17495;DHT22;8864;51.970;4.614;2023-05-10T03:11:50;20.80;71.40
17495;DHT22;8864;51.970;4.614;2023-05-10T03:14:33;20.80;71.40
17495;DHT22;8864;51.970;4.614;2023-05-10T03:17:06;20.80;71.40
17495;DHT22;8864;51.970;4.614;2023-05-10T03:19:42;20.80;71.40
17495;DHT22;8864;51.970;4.614;2023-05-10T03:22:11;20.70;71.30
17495;DHT22;8864;51.970;4.614;2023-05-10T03:24:41;20.70;71.30
17495;DHT22;8864;51.970;4.614;2023-05-10T03:27:10;20.70;71.30
17495;DHT22;8864;51.970;4.614;2023-05-10T03:29:38;20.80;71.40
17495;DHT22;8864;51.970;4.614;2023-05-10T03:32:05;20.70;71.30
17495;DHT22;8864;51.970;4.614;2023-05-10T03:34:32;20.70;71.30
17495;DHT22;8864;51.970;4.614;2023-05-10T03:36:59;20.70;71.30
17495;DHT22;8864;51.970;4.614;2023-05-10T03:39:26;20.70;71.40
17495;DHT22;8864;51.970;4.614;2023-05-10T03:41:53;20.70;71.30
17495;DHT22;8864;51.970;4.614;2023-05-10T03:44:21;20.70;71.30
17495;DHT22;8864;51.970;4.614;2023-05-10T03:46:48;20.70;71.30
17495;DHT22;8864;51.970;4.614;2023-05-10T03:49:15;20.70;71.30
17495;DHT22;8864;51.970;4.614;2023-05-10T03:51:41;20.70;71.30
17495;DHT22;8864;51.970;4.614;2023-05-10T03:54:08;20.70;71.30
17495;DHT22;8864;51.970;4.614;2023-05-10T03:56:35;20.70;71.30
17495;DHT22;8864;51.970;4.614;2023-05-10T03:59:02;20.70;71.30
17495;DHT22;8864;51.970;4.614;2023-05-10T04:01:34;20.70;71.30
17495;DHT22;8864;51.970;4.614;2023-05-10T04:04:01;20.70;71.30
17495;DHT22;8864;51.970;4.614;2023-05-10T04:06:28;20.70;72.10
17495;DHT22;8864;51.970;4.614;2023-05-10T04:08:55;20.70;71.30
17495;DHT22;8864;51.970;4.614;2023-05-10T04:11:21;20.70;71.40
17495;DHT22;8864;51.970;4.614;2023-05-10T04:13:50;20.70;71.30
17495;DHT22;8864;51.970;4.614;2023-05-10T04:16:17;20.70;71.30
17495;DHT22;8864;51.970;4.614;2023-05-10T04:18:45;20.70;71.40
17495;DHT22;8864;51.970;4.614;2023-05-10T04:21:12;20.70;71.40
17495;DHT22;8864;51.970;4.614;2023-05-10T04:23:39;20.70;71.40
17495;DHT22;8864;51.970;4.614;2023-05-10T04:26:06;20.60;71.30
17495;DHT22;8864;51.970;4.614;2023-05-10T04:28:33;20.70;71.40
17495;DHT22;8864;51.970;4.614;2023-05-10T04:31:03;20.60;71.40
17495;DHT22;8864;51.970;4.614;2023-05-10T04:33:30;20.70;71.40
17495;DHT22;8864;51.970;4.614;2023-05-10T04:35:59;20.60;71.30
17495;DHT22;8864;51.970;4.614;2023-05-10T04:38:26;20.60;71.30
17495;DHT22;8864;51.970;4.614;2023-05-10T04:40:53;20.60;71.30
17495;DHT22;8864;51.970;4.614;2023-05-10T04:43:20;20.60;71.40
17495;DHT22;8864;51.970;4.614;2023-05-10T04:45:47;20.60;71.50
17495;DHT22;8864;51.970;4.614;2023-05-10T04:48:13;20.60;71.30
17495;DHT22;8864;51.970;4.614;2023-05-10T04:50:40;20.60;71.40
17495;DHT22;8864;51.970;4.614;2023-05-10T04:53:09;20.60;71.40
17495;DHT22;8864;51.970;4.614;2023-05-10T04:55:35;20.60;71.40
17495;DHT22;8864;51.970;4.614;2023-05-10T04:58:02;20.60;71.40
17495;DHT22;8864;51.970;4.614;2023-05-10T05:00:29;20.60;71.40
17495;DHT22;8864;51.970;4.614;2023-05-10T05:02:56;20.60;71.40
17495;DHT22;8864;51.970;4.614;2023-05-10T05:05:23;20.60;71.40
17495;DHT22;8864;51.970;4.614;2023-05-10T05:07:51;20.60;71.40
17495;DHT22;8864;51.970;4.614;2023-05-10T05:10:19;20.60;71.40
17495;DHT22;8864;51.970;4.614;2023-05-10T05:12:46;20.60;71.50
17495;DHT22;8864;51.970;4.614;2023-05-10T05:15:13;20.60;71.40
17495;DHT22;8864;51.970;4.614;2023-05-10T05:17:42;20.50;71.40
17495;DHT22;8864;51.970;4.614;2023-05-10T05:20:09;20.50;71.40
17495;DHT22;8864;51.970;4.614;2023-05-10T05:22:37;20.60;71.50
17495;DHT22;8864;51.970;4.614;2023-05-10T05:25:05;20.50;71.40
17495;DHT22;8864;51.970;4.614;2023-05-10T05:27:33;20.50;72.20
17495;DHT22;8864;51.970;4.614;2023-05-10T05:30:00;20.50;71.40
17495;DHT22;8864;51.970;4.614;2023-05-10T05:32:27;20.50;71.40
17495;DHT22;8864;51.970;4.614;2023-05-10T05:34:55;20.50;71.40
17495;DHT22;8864;51.970;4.614;2023-05-10T05:37:22;20.50;71.50
17495;DHT22;8864;51.970;4.614;2023-05-10T05:39:50;20.50;71.40
17495;DHT22;8864;51.970;4.614;2023-05-10T05:42:17;20.50;71.40
17495;DHT22;8864;51.970;4.614;2023-05-10T05:44:45;20.50;71.40
17495;DHT22;8864;51.970;4.614;2023-05-10T05:47:12;20.50;71.50
17495;DHT22;8864;51.970;4.614;2023-05-10T05:49:39;20.50;71.50
17495;DHT22;8864;51.970;4.614;2023-05-10T05:52:06;20.50;71.50
17495;DHT22;8864;51.970;4.614;2023-05-10T05:54:33;20.50;71.50
17495;DHT22;8864;51.970;4.614;2023-05-10T05:57:00;20.50;71.50
17495;DHT22;8864;51.970;4.614;2023-05-10T05:59:27;20.50;71.50
17495;DHT22;8864;51.970;4.614;2023-05-10T06:01:55;20.50;72.00
17495;DHT22;8864;51.970;4.614;2023-05-10T06:04:22;20.50;71.90
17495;DHT22;8864;51.970;4.614;2023-05-10T06:06:49;20.50;71.90
17495;DHT22;8864;51.970;4.614;2023-05-10T06:09:16;20.50;71.90
17495;DHT22;8864;51.970;4.614;2023-05-10T06:11:43;20.50;72.00
17495;DHT22;8864;51.970;4.614;2023-05-10T06:14:10;20.50;72.00
17495;DHT22;8864;51.970;4.614;2023-05-10T06:16:37;20.50;72.10
17495;DHT22;8864;51.970;4.614;2023-05-10T06:19:05;20.50;72.00
17495;DHT22;8864;51.970;4.614;2023-05-10T06:21:32;20.50;72.10
17495;DHT22;8864;51.970;4.614;2023-05-10T06:23:59;20.50;72.10
17495;DHT22;8864;51.970;4.614;2023-05-10T06:26:26;20.50;72.20
17495;DHT22;8864;51.970;4.614;2023-05-10T06:28:53;20.50;72.20
17495;DHT22;8864;51.970;4.614;2023-05-10T06:31:20;20.50;72.30
17495;DHT22;8864;51.970;4.614;2023-05-10T06:33:47;20.40;72.20
17495;DHT22;8864;51.970;4.614;2023-05-10T06:36:15;20.50;72.30
17495;DHT22;8864;51.970;4.614;2023-05-10T06:38:42;20.50;72.60
17495;DHT22;8864;51.970;4.614;2023-05-10T06:41:09;20.50;72.90
17495;DHT22;8864;51.970;4.614;2023-05-10T06:43:36;20.50;73.00
17495;DHT22;8864;51.970;4.614;2023-05-10T06:46:05;20.50;73.10
17495;DHT22;8864;51.970;4.614;2023-05-10T06:48:33;20.50;73.90
17495;DHT22;8864;51.970;4.614;2023-05-10T06:51:00;20.50;74.30
17495;DHT22;8864;51.970;4.614;2023-05-10T06:53:28;20.50;74.80
17495;DHT22;8864;51.970;4.614;2023-05-10T06:55:55;20.50;75.40
17495;DHT22;8864;51.970;4.614;2023-05-10T06:58:22;20.50;76.10
17495;DHT22;8864;51.970;4.614;2023-05-10T07:00:49;20.50;76.30
17495;DHT22;8864;51.970;4.614;2023-05-10T07:03:16;20.50;76.30
17495;DHT22;8864;51.970;4.614;2023-05-10T07:05:43;20.50;76.30
17495;DHT22;8864;51.970;4.614;2023-05-10T07:08:10;20.50;76.20
17495;DHT22;8864;51.970;4.614;2023-05-10T07:10:38;20.50;76.00
17495;DHT22;8864;51.970;4.614;2023-05-10T07:13:05;20.50;76.20
17495;DHT22;8864;51.970;4.614;2023-05-10T07:15:32;20.50;76.30
17495;DHT22;8864;51.970;4.614;2023-05-10T07:17:59;20.50;76.30
17495;DHT22;8864;51.970;4.614;2023-05-10T07:20:26;20.50;76.20
17495;DHT22;8864;51.970;4.614;2023-05-10T07:22:53;20.50;76.00
17495;DHT22;8864;51.970;4.614;2023-05-10T07:25:19;20.50;76.00
17495;DHT22;8864;51.970;4.614;2023-05-10T07:27:48;20.50;75.90
17495;DHT22;8864;51.970;4.614;2023-05-10T07:30:15;20.50;75.90
17495;DHT22;8864;51.970;4.614;2023-05-10T07:32:42;20.50;75.70
17495;DHT22;8864;51.970;4.614;2023-05-10T07:35:09;20.50;75.60
17495;DHT22;8864;51.970;4.614;2023-05-10T07:37:36;20.50;75.60
17495;DHT22;8864;51.970;4.614;2023-05-10T07:40:03;20.50;75.50
17495;DHT22;8864;51.970;4.614;2023-05-10T07:42:30;20.50;75.40
17495;DHT22;8864;51.970;4.614;2023-05-10T07:44:58;20.50;75.30
17495;DHT22;8864;51.970;4.614;2023-05-10T07:47:25;20.50;75.30
17495;DHT22;8864;51.970;4.614;2023-05-10T07:49:52;20.50;75.20
17495;DHT22;8864;51.970;4.614;2023-05-10T07:52:19;20.50;75.10
17495;DHT22;8864;51.970;4.614;2023-05-10T07:54:46;20.50;75.10
17495;DHT22;8864;51.970;4.614;2023-05-10T07:57:13;20.50;75.40
17495;DHT22;8864;51.970;4.614;2023-05-10T07:59:43;20.50;75.70
17495;DHT22;8864;51.970;4.614;2023-05-10T08:02:12;20.50;75.40
17495;DHT22;8864;51.970;4.614;2023-05-10T08:04:39;20.50;76.00
17495;DHT22;8864;51.970;4.614;2023-05-10T08:07:05;20.50;75.70
17495;DHT22;8864;51.970;4.614;2023-05-10T08:09:32;20.50;75.60
17495;DHT22;8864;51.970;4.614;2023-05-10T08:11:59;20.50;75.30
17495;DHT22;8864;51.970;4.614;2023-05-10T08:14:28;20.50;75.60
17495;DHT22;8864;51.970;4.614;2023-05-10T08:16:55;20.50;75.50
17495;DHT22;8864;51.970;4.614;2023-05-10T08:19:23;20.50;75.40
17495;DHT22;8864;51.970;4.614;2023-05-10T08:21:50;20.50;75.40
17495;DHT22;8864;51.970;4.614;2023-05-10T08:24:17;20.50;75.40
17495;DHT22;8864;51.970;4.614;2023-05-10T08:26:44;20.50;75.50
17495;DHT22;8864;51.970;4.614;2023-05-10T08:29:11;20.50;75.60
17495;DHT22;8864;51.970;4.614;2023-05-10T08:31:38;20.50;75.60
17495;DHT22;8864;51.970;4.614;2023-05-10T08:34:05;20.50;75.60
17495;DHT22;8864;51.970;4.614;2023-05-10T08:36:33;20.50;75.60
17495;DHT22;8864;51.970;4.614;2023-05-10T08:39:00;20.50;75.70
17495;DHT22;8864;51.970;4.614;2023-05-10T08:41:28;20.50;75.70
17495;DHT22;8864;51.970;4.614;2023-05-10T08:43:55;20.40;75.70
17495;DHT22;8864;51.970;4.614;2023-05-10T08:46:23;20.50;76.50
17495;DHT22;8864;51.970;4.614;2023-05-10T08:48:50;20.40;75.60
17495;DHT22;8864;51.970;4.614;2023-05-10T08:51:19;20.40;75.40
17495;DHT22;8864;51.970;4.614;2023-05-10T08:53:50;20.50;75.50
17495;DHT22;8864;51.970;4.614;2023-05-10T08:56:17;20.40;75.30
17495;DHT22;8864;51.970;4.614;2023-05-10T08:58:45;20.50;75.40
17495;DHT22;8864;51.970;4.614;2023-05-10T09:01:13;20.50;75.30
17495;DHT22;8864;51.970;4.614;2023-05-10T09:03:42;20.50;75.30
17495;DHT22;8864;51.970;4.614;2023-05-10T09:06:11;20.50;75.30
17495;DHT22;8864;51.970;4.614;2023-05-10T09:08:39;20.50;75.20
17495;DHT22;8864;51.970;4.614;2023-05-10T09:11:09;20.50;75.90
17495;DHT22;8864;51.970;4.614;2023-05-10T09:13:36;20.50;75.10
17495;DHT22;8864;51.970;4.614;2023-05-10T09:16:03;20.60;75.10
17495;DHT22;8864;51.970;4.614;2023-05-10T09:18:30;20.60;75.00
17495;DHT22;8864;51.970;4.614;2023-05-10T09:20:57;20.60;75.00
17495;DHT22;8864;51.970;4.614;2023-05-10T09:23:24;20.60;74.90
17495;DHT22;8864;51.970;4.614;2023-05-10T09:26:04;20.60;74.80
17495;DHT22;8864;51.970;4.614;2023-05-10T09:28:50;20.60;74.80
17495;DHT22;8864;51.970;4.614;2023-05-10T09:31:17;20.60;74.70
17495;DHT22;8864;51.970;4.614;2023-05-10T09:33:44;20.60;74.60
17495;DHT22;8864;51.970;4.614;2023-05-10T09:36:13;20.60;74.60
17495;DHT22;8864;51.970;4.614;2023-05-10T09:38:47;20.70;74.60
17495;DHT22;8864;51.970;4.614;2023-05-10T09:41:18;20.70;75.40
17495;DHT22;8864;51.970;4.614;2023-05-10T09:43:47;20.70;74.60
17495;DHT22;8864;51.970;4.614;2023-05-10T09:46:14;20.60;74.50
17495;DHT22;8864;51.970;4.614;2023-05-10T09:48:43;20.60;74.50
17495;DHT22;8864;51.970;4.614;2023-05-10T09:51:10;20.60;74.40
17495;DHT22;8864;51.970;4.614;2023-05-10T09:53:37;20.60;74.70
17495;DHT22;8864;51.970;4.614;2023-05-10T09:56:04;20.70;74.60
17495;DHT22;8864;51.970;4.614;2023-05-10T09:58:31;20.70;74.60
17495;DHT22;8864;51.970;4.614;2023-05-10T10:01:04;20.70;74.50
17495;DHT22;8864;51.970;4.614;2023-05-10T10:03:31;20.70;74.50
17495;DHT22;8864;51.970;4.614;2023-05-10T10:05:58;20.70;74.70
17495;DHT22;8864;51.970;4.614;2023-05-10T10:08:25;20.60;74.50
17495;DHT22;8864;51.970;4.614;2023-05-10T10:10:52;20.70;74.50
17495;DHT22;8864;51.970;4.614;2023-05-10T10:13:19;20.70;74.40
17495;DHT22;8864;51.970;4.614;2023-05-10T10:15:46;20.60;74.30
17495;DHT22;8864;51.970;4.614;2023-05-10T10:18:17;20.60;74.30
17495;DHT22;8864;51.970;4.614;2023-05-10T10:20:49;20.60;74.20
17495;DHT22;8864;51.970;4.614;2023-05-10T10:23:16;20.70;74.20
17495;DHT22;8864;51.970;4.614;2023-05-10T10:25:43;20.60;74.20
17495;DHT22;8864;51.970;4.614;2023-05-10T10:28:21;20.70;74.20
17495;DHT22;8864;51.970;4.614;2023-05-10T10:30:52;20.70;74.30
17495;DHT22;8864;51.970;4.614;2023-05-10T10:36:19;20.70;74.20
17495;DHT22;8864;51.970;4.614;2023-05-10T10:38:59;20.70;74.20
17495;DHT22;8864;51.970;4.614;2023-05-10T10:41:30;20.70;74.20
17495;DHT22;8864;51.970;4.614;2023-05-10T10:44:23;20.70;74.20
17495;DHT22;8864;51.970;4.614;2023-05-10T10:47:05;20.70;74.20
17495;DHT22;8864;51.970;4.614;2023-05-10T10:49:38;20.70;74.20
17495;DHT22;8864;51.970;4.614;2023-05-10T10:52:28;20.70;74.20
17495;DHT22;8864;51.970;4.614;2023-05-10T10:55:01;20.70;74.20
17495;DHT22;8864;51.970;4.614;2023-05-10T10:57:32;20.70;74.10
17495;DHT22;8864;51.970;4.614;2023-05-10T11:00:22;20.70;74.00
17495;DHT22;8864;51.970;4.614;2023-05-10T11:02:50;20.70;74.00
17495;DHT22;8864;51.970;4.614;2023-05-10T11:05:36;20.80;74.00
17495;DHT22;8864;51.970;4.614;2023-05-10T11:08:16;20.80;74.00
17495;DHT22;8864;51.970;4.614;2023-05-10T11:10:51;20.80;73.90
17495;DHT22;8864;51.970;4.614;2023-05-10T11:13:27;20.80;73.90
17495;DHT22;8864;51.970;4.614;2023-05-10T11:15:55;20.80;73.90
17495;DHT22;8864;51.970;4.614;2023-05-10T11:18:25;20.80;73.80
17495;DHT22;8864;51.970;4.614;2023-05-10T11:20:55;20.80;73.80
17495;DHT22;8864;51.970;4.614;2023-05-10T11:23:24;20.80;73.70
17495;DHT22;8864;51.970;4.614;2023-05-10T11:25:56;20.80;73.70
17495;DHT22;8864;51.970;4.614;2023-05-10T11:28:23;20.80;73.70
17495;DHT22;8864;51.970;4.614;2023-05-10T11:30:50;20.80;73.70
17495;DHT22;8864;51.970;4.614;2023-05-10T11:33:18;20.80;73.60
17495;DHT22;8864;51.970;4.614;2023-05-10T11:35:46;20.80;73.60
17495;DHT22;8864;51.970;4.614;2023-05-10T11:38:13;20.80;73.60
17495;DHT22;8864;51.970;4.614;2023-05-10T11:40:42;20.80;73.50
17495;DHT22;8864;51.970;4.614;2023-05-10T11:43:09;20.80;73.50
17495;DHT22;8864;51.970;4.614;2023-05-10T11:45:37;20.80;73.40
17495;DHT22;8864;51.970;4.614;2023-05-10T11:48:04;20.80;73.40
17495;DHT22;8864;51.970;4.614;2023-05-10T11:50:31;20.80;73.40
17495;DHT22;8864;51.970;4.614;2023-05-10T11:52:59;20.80;73.40
17495;DHT22;8864;51.970;4.614;2023-05-10T11:55:27;20.80;73.30
17495;DHT22;8864;51.970;4.614;2023-05-10T11:58:00;20.80;73.30
17495;DHT22;8864;51.970;4.614;2023-05-10T12:00:28;20.80;73.30
17495;DHT22;8864;51.970;4.614;2023-05-10T12:02:56;20.80;73.30
17495;DHT22;8864;51.970;4.614;2023-05-10T12:05:24;20.80;73.20
17495;DHT22;8864;51.970;4.614;2023-05-10T12:07:51;20.80;73.30
17495;DHT22;8864;51.970;4.614;2023-05-10T12:10:25;20.80;73.20
17495;DHT22;8864;51.970;4.614;2023-05-10T12:12:53;20.80;73.10
17495;DHT22;8864;51.970;4.614;2023-05-10T12:15:22;20.80;73.40
17495;DHT22;8864;51.970;4.614;2023-05-10T12:17:50;20.80;73.20
17495;DHT22;8864;51.970;4.614;2023-05-10T12:20:19;20.80;73.10
17495;DHT22;8864;51.970;4.614;2023-05-10T12:22:50;20.80;73.20
17495;DHT22;8864;51.970;4.614;2023-05-10T12:25:17;20.80;73.40
17495;DHT22;8864;51.970;4.614;2023-05-10T12:27:51;20.80;73.70
17495;DHT22;8864;51.970;4.614;2023-05-10T12:30:21;20.70;73.60
17495;DHT22;8864;51.970;4.614;2023-05-10T12:32:49;20.80;73.60
17495;DHT22;8864;51.970;4.614;2023-05-10T12:35:16;20.80;73.70
17495;DHT22;8864;51.970;4.614;2023-05-10T12:37:46;20.80;73.70
17495;DHT22;8864;51.970;4.614;2023-05-10T12:40:13;20.70;73.70
17495;DHT22;8864;51.970;4.614;2023-05-10T12:42:40;20.70;73.70
17495;DHT22;8864;51.970;4.614;2023-05-10T12:45:08;20.70;73.70
17495;DHT22;8864;51.970;4.614;2023-05-10T12:47:37;20.70;73.80
17495;DHT22;8864;51.970;4.614;2023-05-10T12:50:05;20.70;73.90
17495;DHT22;8864;51.970;4.614;2023-05-10T12:52:32;20.70;73.80
17495;DHT22;8864;51.970;4.614;2023-05-10T12:54:59;20.70;73.80
17495;DHT22;8864;51.970;4.614;2023-05-10T12:57:27;20.70;73.90
17495;DHT22;8864;51.970;4.614;2023-05-10T12:59:54;20.70;73.90
17495;DHT22;8864;51.970;4.614;2023-05-10T13:02:21;20.70;73.90
17495;DHT22;8864;51.970;4.614;2023-05-10T13:04:50;20.80;74.00
17495;DHT22;8864;51.970;4.614;2023-05-10T13:07:17;20.70;74.00
17495;DHT22;8864;51.970;4.614;2023-05-10T13:09:44;20.70;74.00
17495;DHT22;8864;51.970;4.614;2023-05-10T13:12:11;20.70;74.00
17495;DHT22;8864;51.970;4.614;2023-05-10T13:14:38;20.70;74.10
17495;DHT22;8864;51.970;4.614;2023-05-10T13:17:06;20.70;73.90
17495;DHT22;8864;51.970;4.614;2023-05-10T13:19:33;20.80;74.00
17495;DHT22;8864;51.970;4.614;2023-05-10T13:22:02;20.80;74.00
17495;DHT22;8864;51.970;4.614;2023-05-10T13:24:29;20.80;74.00
17495;DHT22;8864;51.970;4.614;2023-05-10T13:26:56;20.80;74.00
17495;DHT22;8864;51.970;4.614;2023-05-10T13:29:23;20.80;74.00
17495;DHT22;8864;51.970;4.614;2023-05-10T13:31:50;20.80;74.00
17495;DHT22;8864;51.970;4.614;2023-05-10T13:34:17;20.80;74.00
17495;DHT22;8864;51.970;4.614;2023-05-10T13:36:46;20.80;74.00
17495;DHT22;8864;51.970;4.614;2023-05-10T13:39:14;20.80;73.90
17495;DHT22;8864;51.970;4.614;2023-05-10T13:41:41;20.80;74.00
17495;DHT22;8864;51.970;4.614;2023-05-10T13:44:08;20.80;74.00
17495;DHT22;8864;51.970;4.614;2023-05-10T13:46:36;20.80;74.10
17495;DHT22;8864;51.970;4.614;2023-05-10T13:49:04;20.80;74.10
17495;DHT22;8864;51.970;4.614;2023-05-10T13:51:30;20.80;74.10
17495;DHT22;8864;51.970;4.614;2023-05-10T13:53:58;20.80;74.10
17495;DHT22;8864;51.970;4.614;2023-05-10T13:56:26;20.80;74.10
17495;DHT22;8864;51.970;4.614;2023-05-10T13:58:53;20.80;74.00
17495;DHT22;8864;51.970;4.614;2023-05-10T14:01:20;20.80;74.10
17495;DHT22;8864;51.970;4.614;2023-05-10T14:03:47;20.90;74.10
17495;DHT22;8864;51.970;4.614;2023-05-10T14:06:14;20.80;74.10
17495;DHT22;8864;51.970;4.614;2023-05-10T14:08:41;20.80;74.20
17495;DHT22;8864;51.970;4.614;2023-05-10T14:11:08;20.90;74.30
17495;DHT22;8864;51.970;4.614;2023-05-10T14:13:36;20.80;74.30
17495;DHT22;8864;51.970;4.614;2023-05-10T14:16:04;20.80;74.40
17495;DHT22;8864;51.970;4.614;2023-05-10T14:18:31;20.80;74.40
17495;DHT22;8864;51.970;4.614;2023-05-10T14:20:58;20.90;74.50
17495;DHT22;8864;51.970;4.614;2023-05-10T14:23:25;20.90;74.50
17495;DHT22;8864;51.970;4.614;2023-05-10T14:25:54;20.90;74.50
17495;DHT22;8864;51.970;4.614;2023-05-10T14:28:21;20.90;74.50
17495;DHT22;8864;51.970;4.614;2023-05-10T14:30:50;20.80;74.40
17495;DHT22;8864;51.970;4.614;2023-05-10T14:33:17;20.80;74.40
17495;DHT22;8864;51.970;4.614;2023-05-10T14:35:45;20.80;74.40
17495;DHT22;8864;51.970;4.614;2023-05-10T14:38:13;20.90;74.50
17495;DHT22;8864;51.970;4.614;2023-05-10T14:40:40;20.90;74.50
17495;DHT22;8864;51.970;4.614;2023-05-10T14:43:07;20.90;74.50
17495;DHT22;8864;51.970;4.614;2023-05-10T14:45:34;21.00;74.60
17495;DHT22;8864;51.970;4.614;2023-05-10T14:48:02;20.90;74.60
17495;DHT22;8864;51.970;4.614;2023-05-10T14:50:30;20.90;75.60
17495;DHT22;8864;51.970;4.614;2023-05-10T14:52:57;20.90;75.00
17495;DHT22;8864;51.970;4.614;2023-05-10T14:55:24;21.00;74.80
17495;DHT22;8864;51.970;4.614;2023-05-10T14:57:51;20.90;74.60
17495;DHT22;8864;51.970;4.614;2023-05-10T15:00:18;20.90;74.50
17495;DHT22;8864;51.970;4.614;2023-05-10T15:02:45;21.00;74.50
17495;DHT22;8864;51.970;4.614;2023-05-10T15:05:15;21.00;74.30
17495;DHT22;8864;51.970;4.614;2023-05-10T15:07:42;21.00;74.20
17495;DHT22;8864;51.970;4.614;2023-05-10T15:10:09;21.00;74.00
17495;DHT22;8864;51.970;4.614;2023-05-10T15:12:37;21.00;73.90
17495;DHT22;8864;51.970;4.614;2023-05-10T15:15:04;21.00;73.70
17495;DHT22;8864;51.970;4.614;2023-05-10T15:17:32;21.00;73.60
17495;DHT22;8864;51.970;4.614;2023-05-10T15:19:59;21.00;73.40
17495;DHT22;8864;51.970;4.614;2023-05-10T15:22:29;21.00;73.40
17495;DHT22;8864;51.970;4.614;2023-05-10T15:24:57;21.00;73.30
17495;DHT22;8864;51.970;4.614;2023-05-10T15:27:24;21.00;73.20
17495;DHT22;8864;51.970;4.614;2023-05-10T15:29:51;21.00;73.30
17495;DHT22;8864;51.970;4.614;2023-05-10T15:32:17;21.00;73.00
17495;DHT22;8864;51.970;4.614;2023-05-10T15:34:44;21.00;73.00
17495;DHT22;8864;51.970;4.614;2023-05-10T15:37:11;21.00;72.90
17495;DHT22;8864;51.970;4.614;2023-05-10T15:39:40;21.00;72.80
17495;DHT22;8864;51.970;4.614;2023-05-10T15:42:07;21.00;72.80
17495;DHT22;8864;51.970;4.614;2023-05-10T15:44:34;21.00;72.80
17495;DHT22;8864;51.970;4.614;2023-05-10T15:47:04;21.00;72.60
17495;DHT22;8864;51.970;4.614;2023-05-10T15:49:31;21.00;72.60
17495;DHT22;8864;51.970;4.614;2023-05-10T15:51:58;21.00;72.50
17495;DHT22;8864;51.970;4.614;2023-05-10T15:54:25;21.00;72.40
17495;DHT22;8864;51.970;4.614;2023-05-10T15:56:53;21.00;72.30
17495;DHT22;8864;51.970;4.614;2023-05-10T15:59:20;21.00;72.30